LGRP/RHO METAR and TAF weather

Enter ICAO airport designator
Station Type Date Time Source
LGRP METAR 2020/01/18 15:50 UTC NOAA

LGRP 181550Z 24005KT 9999 FEW025 14/10 Q1014 NOSIG


Station Type Date Time Source
LGRP Decoded METAR 2020/01/18 15:50 UTC NOAA

Rhodes Airport , Greece (LGRP) 36-24N 028-05E 11M
Jan 18, 2020 - 10:50 AM EST / 2020.01.18 1550 UTC
Wind: from the WSW (240 degrees) at 6 MPH (5 KT):0
Visibility: greater than 7 mile(s):0
Sky conditions: mostly clear
Temperature: 57 F (14 C)
Dew Point: 50 F (10 C)
Relative Humidity: 76%
Pressure (altimeter): 29.94 in. Hg (1014 hPa)
ob: LGRP 181550Z 24005KT 9999 FEW025 14/10 Q1014 NOSIG
cycle: 16

Station Type Date Time Source
LGRP TAF 2020/01/18 12:12 UTC NOAA

TAF LGRP 181100Z 1812/1912 VRB03KT 9999 SCT025 PROB30
TEMPO 1812/1816 5000 RA BKN025
BECMG 1812/1814 29010KT

Example: see airport list